Time;durP1;ratioP1;P1;durP2;ratioP2;P2;SDS_P1;SDS_P2;PMS_P1;PMS_P2;Temp;Humidity;BMP_temperature;BMP_pressure;BME280_temperature;BME280_humidity;BME280_pressure;Samples;Min_cycle;Max_cycle;Signal;HPM_P1;HPM_P2
2023/04/28 00:01:46;;;;;;;;;;;15.10;1.00;;;;;;5074770;28;19912;-73
2023/04/28 00:04:12;;;;;;;;;;;15.00;1.00;;;;;;5074490;28;20408;-74
2023/04/28 00:06:39;;;;;;;;;;;15.00;1.00;;;;;;5074546;28;19909;-71
2023/04/28 00:09:06;;;;;;;;;;;15.10;1.00;;;;;;5074434;28;19909;-73
2023/04/28 00:11:32;;;;;;;;;;;15.00;1.00;;;;;;5074405;28;19912;-73
2023/04/28 00:13:57;;;;;;;;;;;15.00;1.00;;;;;;5074405;28;20341;-73
2023/04/28 00:16:23;;;;;;;;;;;15.10;1.00;;;;;;5074488;28;19909;-71
2023/04/28 00:18:48;;;;;;;;;;;15.10;1.00;;;;;;5074309;28;19909;-72
2023/04/28 00:21:14;;;;;;;;;;;15.00;1.00;;;;;;5074228;28;19916;-72
2023/04/28 00:23:40;;;;;;;;;;;15.10;1.00;;;;;;5074276;28;20327;-73
2023/04/28 00:26:05;;;;;;;;;;;15.10;1.00;;;;;;5074159;28;20439;-73
2023/04/28 00:28:31;;;;;;;;;;;15.10;1.00;;;;;;5074094;28;19915;-74
2023/04/28 00:30:56;;;;;;;;;;;15.10;1.00;;;;;;5056135;28;19908;-73
2023/04/28 00:33:22;;;;;;;;;;;15.10;1.00;;;;;;5074079;28;19916;-73
2023/04/28 00:35:47;;;;;;;;;;;15.10;1.00;;;;;;5074050;28;19916;-71
2023/04/28 00:38:13;;;;;;;;;;;15.10;1.00;;;;;;5056097;28;19908;-72
2023/04/28 00:40:38;;;;;;;;;;;15.10;1.00;;;;;;5074010;28;20407;-73
2023/04/28 00:43:04;;;;;;;;;;;15.10;1.00;;;;;;5052162;28;19930;-74
2023/04/28 00:45:30;;;;;;;;;;;15.10;1.00;;;;;;5052644;28;19916;-71
2023/04/28 00:47:58;;;;;;;;;;;15.20;1.00;;;;;;5053061;28;20289;-73
2023/04/28 00:50:24;;;;;;;;;;;15.20;1.00;;;;;;5053992;28;19915;-73
2023/04/28 00:52:50;;;;;;;;;;;15.10;1.00;;;;;;5053904;28;19913;-73
2023/04/28 00:55:17;;;;;;;;;;;15.10;1.00;;;;;;5053772;28;19932;-73
2023/04/28 00:57:43;;;;;;;;;;;15.10;1.00;;;;;;5053892;28;19975;-72
2023/04/28 01:00:09;;;;;;;;;;;15.10;1.00;;;;;;5053931;28;20025;-74
2023/04/28 01:02:37;;;;;;;;;;;15.00;1.00;;;;;;5053820;28;20436;-73
2023/04/28 01:05:03;;;;;;;;;;;15.10;1.00;;;;;;5053638;28;20350;-74
2023/04/28 01:07:29;;;;;;;;;;;15.10;1.00;;;;;;5052894;28;19951;-72
2023/04/28 01:09:55;;;;;;;;;;;15.10;1.00;;;;;;5053603;28;19950;-72
2023/04/28 01:12:21;;;;;;;;;;;15.10;1.00;;;;;;5052284;28;20281;-73
2023/04/28 01:14:47;;;;;;;;;;;15.10;1.00;;;;;;5053600;28;19913;-73
2023/04/28 01:17:13;;;;;;;;;;;15.10;1.00;;;;;;5053957;28;19913;-73
2023/04/28 01:19:39;;;;;;;;;;;15.20;1.00;;;;;;5053738;28;19909;-73
2023/04/28 01:22:05;;;;;;;;;;;15.20;1.00;;;;;;5053665;28;19913;-72
2023/04/28 01:24:30;;;;;;;;;;;15.20;1.00;;;;;;5053417;28;19920;-72
2023/04/28 01:26:56;;;;;;;;;;;15.10;1.00;;;;;;5053543;28;19979;-73
2023/04/28 01:29:22;;;;;;;;;;;15.20;1.00;;;;;;5053373;28;19913;-72
2023/04/28 01:31:47;;;;;;;;;;;15.10;1.00;;;;;;5053410;28;20311;-74
2023/04/28 01:34:13;;;;;;;;;;;15.20;1.00;;;;;;5052074;28;19909;-72
2023/04/28 01:36:38;;;;;;;;;;;15.20;1.00;;;;;;5053563;28;20055;-73
2023/04/28 01:39:04;;;;;;;;;;;15.20;1.00;;;;;;5053399;28;19909;-75
2023/04/28 01:41:33;;;;;;;;;;;15.20;1.00;;;;;;5059334;28;19920;-71
2023/04/28 01:43:59;;;;;;;;;;;15.20;1.00;;;;;;5073556;28;20054;-73
2023/04/28 01:46:24;;;;;;;;;;;15.20;1.00;;;;;;5073354;28;19909;-73
2023/04/28 01:48:50;;;;;;;;;;;15.30;1.00;;;;;;5073274;28;19908;-72
2023/04/28 01:51:16;;;;;;;;;;;15.20;1.00;;;;;;5073237;28;19915;-72
2023/04/28 01:53:41;;;;;;;;;;;15.20;1.00;;;;;;5073197;28;19943;-75
2023/04/28 01:56:07;;;;;;;;;;;15.20;1.00;;;;;;5073318;28;19958;-73
2023/04/28 01:58:32;;;;;;;;;;;15.20;1.00;;;;;;5073054;28;20384;-73
2023/04/28 02:00:58;;;;;;;;;;;15.30;1.00;;;;;;5073121;28;19909;-74
2023/04/28 02:03:23;;;;;;;;;;;15.30;1.00;;;;;;5073018;28;19916;-72
2023/04/28 02:05:49;;;;;;;;;;;15.30;1.00;;;;;;5073078;28;19948;-74
2023/04/28 02:08:14;;;;;;;;;;;15.20;1.00;;;;;;5073050;28;19908;-75
2023/04/28 02:10:40;;;;;;;;;;;15.20;1.00;;;;;;5073153;28;19909;-74
2023/04/28 02:13:06;;;;;;;;;;;15.30;1.00;;;;;;5073380;28;20418;-72
2023/04/28 02:15:31;;;;;;;;;;;15.30;1.00;;;;;;5073046;28;19958;-75
2023/04/28 02:17:57;;;;;;;;;;;15.30;1.00;;;;;;5072960;28;20280;-73
2023/04/28 02:20:22;;;;;;;;;;;15.30;1.00;;;;;;5076251;28;19912;-73
2023/04/28 02:22:49;;;;;;;;;;;15.30;1.00;;;;;;5077092;28;19908;-71
2023/04/28 02:25:15;;;;;;;;;;;15.30;1.00;;;;;;5076407;28;20388;-73
2023/04/28 02:27:40;;;;;;;;;;;15.30;1.00;;;;;;5076490;28;19948;-74
2023/04/28 02:30:06;;;;;;;;;;;15.30;1.00;;;;;;5076635;28;19908;-72
2023/04/28 02:32:32;;;;;;;;;;;15.30;1.00;;;;;;5076652;28;19999;-72
2023/04/28 02:34:58;;;;;;;;;;;15.30;1.00;;;;;;5058336;28;20003;-74
2023/04/28 02:37:23;;;;;;;;;;;15.20;1.00;;;;;;5076296;28;19915;-73
2023/04/28 02:39:49;;;;;;;;;;;15.30;1.00;;;;;;5076257;28;19912;-73
2023/04/28 02:42:15;;;;;;;;;;;15.30;1.00;;;;;;5076009;28;19920;-73
2023/04/28 02:44:40;;;;;;;;;;;15.30;1.00;;;;;;5076111;28;20007;-74
2023/04/28 02:47:06;;;;;;;;;;;15.30;1.00;;;;;;5076142;28;19908;-73
2023/04/28 02:49:31;;;;;;;;;;;15.30;1.00;;;;;;5076111;28;20395;-73
2023/04/28 02:51:57;;;;;;;;;;;15.30;1.00;;;;;;5076095;28;19909;-72
2023/04/28 02:54:29;;;;;;;;;;;15.30;1.00;;;;;;5076486;28;19913;-72
2023/04/28 02:56:55;;;;;;;;;;;15.30;1.00;;;;;;5076104;28;19916;-74
2023/04/28 02:59:21;;;;;;;;;;;15.30;1.00;;;;;;5075919;28;19908;-73
2023/04/28 03:01:47;;;;;;;;;;;15.30;1.00;;;;;;5075835;28;19908;-73
2023/04/28 03:04:13;;;;;;;;;;;15.30;1.00;;;;;;5057715;28;19965;-73
2023/04/28 03:06:39;;;;;;;;;;;15.30;1.00;;;;;;5057844;28;19962;-72
2023/04/28 03:09:05;;;;;;;;;;;15.30;1.00;;;;;;5075725;28;19908;-71
2023/04/28 03:11:31;;;;;;;;;;;15.30;1.00;;;;;;5075755;28;19909;-72
2023/04/28 03:13:56;;;;;;;;;;;15.30;1.00;;;;;;5057595;28;20372;-73
2023/04/28 03:16:22;;;;;;;;;;;15.30;1.00;;;;;;5057615;28;20444;-73
2023/04/28 03:18:48;;;;;;;;;;;15.30;1.00;;;;;;5075549;28;19999;-71
2023/04/28 03:21:13;;;;;;;;;;;15.30;1.00;;;;;;5075506;28;19916;-72
2023/04/28 03:23:39;;;;;;;;;;;15.30;1.00;;;;;;5075328;28;19920;-73
2023/04/28 03:26:04;;;;;;;;;;;15.30;1.00;;;;;;5075234;28;20249;-72
2023/04/28 03:28:30;;;;;;;;;;;15.30;1.00;;;;;;5075277;28;19909;-72
2023/04/28 03:30:56;;;;;;;;;;;15.30;1.00;;;;;;5074543;28;20033;-72
2023/04/28 03:33:21;;;;;;;;;;;15.30;1.00;;;;;;5075400;28;19985;-73
2023/04/28 03:35:47;;;;;;;;;;;15.30;1.00;;;;;;5075212;28;19915;-72
2023/04/28 03:38:13;;;;;;;;;;;15.30;1.00;;;;;;5057175;28;19912;-73
2023/04/28 03:40:39;;;;;;;;;;;15.20;1.00;;;;;;5075233;28;19915;-73
2023/04/28 03:43:04;;;;;;;;;;;15.20;1.00;;;;;;5074485;28;19920;-73
2023/04/28 03:45:30;;;;;;;;;;;15.10;1.00;;;;;;5057073;28;19908;-74
2023/04/28 03:47:56;;;;;;;;;;;15.10;1.00;;;;;;5074906;28;20326;-72
2023/04/28 03:50:21;;;;;;;;;;;15.10;1.00;;;;;;5075363;28;19926;-73
2023/04/28 03:52:47;;;;;;;;;;;15.10;1.00;;;;;;5074855;28;19943;-72
2023/04/28 03:55:12;;;;;;;;;;;15.00;1.00;;;;;;5074815;28;20027;-73
2023/04/28 03:57:38;;;;;;;;;;;15.00;1.00;;;;;;5074590;28;20367;-73
2023/04/28 04:00:04;;;;;;;;;;;15.00;1.00;;;;;;5074701;28;19912;-74
2023/04/28 04:02:29;;;;;;;;;;;15.00;1.00;;;;;;5074730;28;19908;-73
2023/04/28 04:04:55;;;;;;;;;;;14.90;1.00;;;;;;5074533;28;19952;-71
2023/04/28 04:07:21;;;;;;;;;;;14.90;1.00;;;;;;5074611;28;19915;-73
2023/04/28 04:09:46;;;;;;;;;;;14.90;1.00;;;;;;5074494;28;20376;-71
2023/04/28 04:12:12;;;;;;;;;;;14.90;1.00;;;;;;5074461;28;19912;-73
2023/04/28 04:14:38;;;;;;;;;;;14.90;1.00;;;;;;5074516;28;19909;-74
2023/04/28 04:17:03;;;;;;;;;;;14.80;1.00;;;;;;5056465;28;20280;-73
2023/04/28 04:19:29;;;;;;;;;;;14.90;1.00;;;;;;5074385;28;19915;-74
2023/04/28 04:21:55;;;;;;;;;;;14.90;1.00;;;;;;5074519;28;20321;-73
2023/04/28 04:24:20;;;;;;;;;;;14.90;1.00;;;;;;5074226;28;19912;-73
2023/04/28 04:26:46;;;;;;;;;;;14.90;1.00;;;;;;5074194;28;19908;-74
2023/04/28 04:29:12;;;;;;;;;;;14.90;1.00;;;;;;5074153;28;20077;-72
2023/04/28 04:31:37;;;;;;;;;;;14.90;1.00;;;;;;5074320;28;19916;-72
2023/04/28 04:34:03;;;;;;;;;;;14.90;1.00;;;;;;5074256;28;19938;-74
2023/04/28 04:36:29;;;;;;;;;;;14.90;1.00;;;;;;5074070;28;19999;-71
2023/04/28 04:38:54;;;;;;;;;;;14.90;1.00;;;;;;5073993;28;19948;-75
2023/04/28 04:41:20;;;;;;;;;;;14.90;1.00;;;;;;5055517;28;19948;-73
2023/04/28 04:43:46;;;;;;;;;;;14.90;1.00;;;;;;5074078;28;19931;-74
2023/04/28 04:46:12;;;;;;;;;;;14.90;1.00;;;;;;5074040;28;19908;-73
2023/04/28 04:48:37;;;;;;;;;;;14.90;1.00;;;;;;5073881;28;19943;-74
2023/04/28 04:51:03;;;;;;;;;;;15.00;1.00;;;;;;5073890;28;19947;-72
2023/04/28 04:53:28;;;;;;;;;;;15.00;1.00;;;;;;5073793;28;19908;-72
2023/04/28 04:55:54;;;;;;;;;;;15.00;1.00;;;;;;5073492;28;19908;-72
2023/04/28 04:58:20;;;;;;;;;;;15.00;1.00;;;;;;5055721;28;19990;-72
2023/04/28 05:00:45;;;;;;;;;;;15.00;1.00;;;;;;5073897;28;19909;-71
2023/04/28 05:03:11;;;;;;;;;;;15.00;1.00;;;;;;5073635;28;20373;-71
2023/04/28 05:05:37;;;;;;;;;;;15.10;1.00;;;;;;5073869;28;19908;-73
2023/04/28 05:08:02;;;;;;;;;;;15.10;1.00;;;;;;5073796;28;20288;-72
2023/04/28 05:10:28;;;;;;;;;;;15.20;1.00;;;;;;5074199;28;20345;-73
2023/04/28 05:12:53;;;;;;;;;;;15.30;1.00;;;;;;5073594;28;19999;-73
2023/04/28 05:15:19;;;;;;;;;;;15.30;1.00;;;;;;5073601;28;20415;-74
2023/04/28 05:17:45;;;;;;;;;;;15.40;1.00;;;;;;5073803;28;19915;-72
2023/04/28 05:20:10;;;;;;;;;;;15.40;1.00;;;;;;5073613;28;20314;-72
2023/04/28 05:22:36;;;;;;;;;;;15.40;1.00;;;;;;5055500;28;19909;-74
2023/04/28 05:25:01;;;;;;;;;;;15.50;1.00;;;;;;5073402;28;19955;-72
2023/04/28 05:27:27;;;;;;;;;;;15.50;1.00;;;;;;5073400;28;19952;-73
2023/04/28 05:29:53;;;;;;;;;;;15.50;1.00;;;;;;5073459;28;20007;-72
2023/04/28 05:32:18;;;;;;;;;;;15.40;1.00;;;;;;5073681;28;19909;-72
2023/04/28 05:34:44;;;;;;;;;;;15.40;1.00;;;;;;5073522;28;20284;-74
2023/04/28 05:37:10;;;;;;;;;;;15.50;1.00;;;;;;5055390;28;19984;-73
2023/04/28 05:39:36;;;;;;;;;;;15.50;1.00;;;;;;5073394;28;20299;-73
2023/04/28 05:42:03;;;;;;;;;;;15.60;1.00;;;;;;5073079;28;19927;-73
2023/04/28 05:44:29;;;;;;;;;;;15.60;1.00;;;;;;5073230;28;19912;-73
2023/04/28 05:46:54;;;;;;;;;;;15.60;1.00;;;;;;5073259;28;19909;-71
2023/04/28 05:49:20;;;;;;;;;;;15.50;1.00;;;;;;5073248;28;19958;-73
2023/04/28 05:51:45;;;;;;;;;;;15.40;1.00;;;;;;5073590;28;20278;-71
2023/04/28 05:54:11;;;;;;;;;;;15.40;1.00;;;;;;5074782;28;19908;-74
2023/04/28 05:56:37;;;;;;;;;;;15.40;1.00;;;;;;5077091;28;19915;-72
2023/04/28 05:59:03;;;;;;;;;;;15.50;1.00;;;;;;5076854;28;19912;-73
2023/04/28 06:01:31;;;;;;;;;;;15.40;1.00;;;;;;5059024;28;19987;-73
2023/04/28 06:03:57;;;;;;;;;;;15.40;1.00;;;;;;5077050;28;19973;-74
2023/04/28 06:06:23;;;;;;;;;;;15.50;1.00;;;;;;5076833;28;19912;-71
2023/04/28 06:08:49;;;;;;;;;;;15.40;1.00;;;;;;5076982;28;19915;-72
2023/04/28 06:11:14;;;;;;;;;;;15.40;1.00;;;;;;5076870;28;19908;-74
2023/04/28 06:13:40;;;;;;;;;;;15.50;1.00;;;;;;5058726;28;19991;-72
2023/04/28 06:16:06;;;;;;;;;;;15.50;1.00;;;;;;5058787;28;19909;-72
2023/04/28 06:18:32;;;;;;;;;;;15.50;1.00;;;;;;5076752;28;19912;-72
2023/04/28 06:20:57;;;;;;;;;;;15.60;1.00;;;;;;5076652;28;19934;-71
2023/04/28 06:23:23;;;;;;;;;;;15.60;1.00;;;;;;5058518;28;19934;-73
2023/04/28 06:25:48;;;;;;;;;;;15.60;1.00;;;;;;5076770;28;20308;-72
2023/04/28 06:28:14;;;;;;;;;;;15.70;1.00;;;;;;5076537;28;19916;-73
2023/04/28 06:30:40;;;;;;;;;;;15.60;1.00;;;;;;5076698;28;19909;-73
2023/04/28 06:33:06;;;;;;;;;;;15.60;1.00;;;;;;5076468;28;19916;-73
2023/04/28 06:35:35;;;;;;;;;;;15.70;1.00;;;;;;5076590;28;19912;-72
2023/04/28 06:38:01;;;;;;;;;;;15.60;1.00;;;;;;5076274;28;20288;-73
2023/04/28 06:40:26;;;;;;;;;;;15.80;1.00;;;;;;5076427;28;19951;-73
2023/04/28 06:42:52;;;;;;;;;;;15.90;1.00;;;;;;5075762;28;19960;-73
2023/04/28 06:45:18;;;;;;;;;;;16.00;1.00;;;;;;5076065;28;19913;-74
2023/04/28 06:47:43;;;;;;;;;;;16.20;1.00;;;;;;5075986;28;19908;-74
2023/04/28 06:50:09;;;;;;;;;;;16.20;1.00;;;;;;5076134;28;19940;-73
2023/04/28 06:52:35;;;;;;;;;;;16.20;1.00;;;;;;5076058;28;19908;-74
2023/04/28 06:55:00;;;;;;;;;;;16.10;1.00;;;;;;5058028;28;20312;-74
2023/04/28 06:57:26;;;;;;;;;;;16.10;1.00;;;;;;5057921;28;19915;-75
2023/04/28 06:59:52;;;;;;;;;;;16.20;1.00;;;;;;5076273;28;19909;-74
2023/04/28 07:02:17;;;;;;;;;;;16.20;1.00;;;;;;5075848;28;19909;-72
2023/04/28 07:04:43;;;;;;;;;;;16.10;1.00;;;;;;5075331;28;19916;-73
2023/04/28 07:07:09;;;;;;;;;;;15.90;1.00;;;;;;5075208;28;19920;-73
2023/04/28 07:09:34;;;;;;;;;;;15.80;1.00;;;;;;5075706;28;19909;-72
2023/04/28 07:12:00;;;;;;;;;;;15.80;1.00;;;;;;5075757;28;20277;-74
2023/04/28 07:14:26;;;;;;;;;;;15.90;1.00;;;;;;5075608;28;20338;-74
2023/04/28 07:16:52;;;;;;;;;;;15.90;1.00;;;;;;5075582;28;19908;-72
2023/04/28 07:19:18;;;;;;;;;;;15.90;1.00;;;;;;5075557;28;19908;-73
2023/04/28 07:21:43;;;;;;;;;;;15.80;1.00;;;;;;5075434;28;19914;-73
2023/04/28 07:24:09;;;;;;;;;;;15.80;1.00;;;;;;5057352;28;20395;-74
2023/04/28 07:26:35;;;;;;;;;;;16.10;1.00;;;;;;5057370;28;19909;-73
2023/04/28 07:29:01;;;;;;;;;;;16.10;1.00;;;;;;5075344;28;19908;-72
2023/04/28 07:31:27;;;;;;;;;;;16.00;1.00;;;;;;5075319;28;19909;-72
2023/04/28 07:33:53;;;;;;;;;;;15.90;1.00;;;;;;5075197;28;19913;-73
2023/04/28 07:36:19;;;;;;;;;;;16.00;1.00;;;;;;5075482;28;19954;-73
2023/04/28 07:38:45;;;;;;;;;;;16.20;1.00;;;;;;5075104;28;19913;-73
2023/04/28 07:41:11;;;;;;;;;;;16.30;1.00;;;;;;5074948;28;19924;-74
2023/04/28 07:43:37;;;;;;;;;;;16.50;1.00;;;;;;5075140;28;19958;-73
2023/04/28 07:46:02;;;;;;;;;;;16.60;1.00;;;;;;5075121;28;19916;-74
2023/04/28 07:48:28;;;;;;;;;;;16.70;1.00;;;;;;5074932;28;19909;-71
2023/04/28 07:50:53;;;;;;;;;;;16.80;1.00;;;;;;5074905;28;19908;-74
2023/04/28 07:53:19;;;;;;;;;;;17.10;1.00;;;;;;5074854;28;20357;-74
2023/04/28 07:55:45;;;;;;;;;;;17.30;1.00;;;;;;5074807;28;20369;-74
2023/04/28 07:58:12;;;;;;;;;;;17.30;1.00;;;;;;5056775;28;19909;-75
2023/04/28 08:00:37;;;;;;;;;;;17.30;99.90;;;;;;5074717;28;20379;-72
2023/04/28 08:03:03;;;;;;;;;;;17.10;99.90;;;;;;5075160;28;19913;-73
2023/04/28 08:05:28;;;;;;;;;;;17.30;99.90;;;;;;5074860;28;20371;-72
2023/04/28 08:07:54;;;;;;;;;;;17.30;99.90;;;;;;5074655;28;19908;-73
2023/04/28 08:10:20;;;;;;;;;;;17.50;99.90;;;;;;5074609;28;19909;-73
2023/04/28 08:12:46;;;;;;;;;;;17.70;99.90;;;;;;5074501;28;19962;-73
2023/04/28 08:15:11;;;;;;;;;;;17.70;99.90;;;;;;5056382;28;19944;-74
2023/04/28 08:17:37;;;;;;;;;;;17.80;99.90;;;;;;5074122;28;19916;-73
2023/04/28 08:20:04;;;;;;;;;;;17.80;99.90;;;;;;5074343;28;20311;-71
2023/04/28 08:22:30;;;;;;;;;;;17.80;99.90;;;;;;5074275;28;19908;-73
2023/04/28 08:24:55;;;;;;;;;;;17.70;99.90;;;;;;5074183;28;19962;-73
2023/04/28 08:27:22;;;;;;;;;;;18.10;99.90;;;;;;5056272;28;19909;-74
2023/04/28 08:29:48;;;;;;;;;;;18.90;99.90;;;;;;5056311;28;20327;-73
2023/04/28 08:32:14;;;;;;;;;;;19.60;99.90;;;;;;5074129;28;19909;-73
2023/04/28 08:34:40;;;;;;;;;;;19.80;99.90;;;;;;5074091;28;19909;-74
2023/04/28 08:37:05;;;;;;;;;;;19.70;99.90;;;;;;5074312;28;19944;-75
2023/04/28 08:39:33;;;;;;;;;;;19.20;99.90;;;;;;5074186;28;19908;-73
2023/04/28 08:41:58;;;;;;;;;;;19.20;99.90;;;;;;5073733;28;19921;-73
2023/04/28 08:44:24;;;;;;;;;;;19.00;99.90;;;;;;5073905;28;20276;-73
2023/04/28 08:46:51;;;;;;;;;;;18.90;99.90;;;;;;5073982;28;20302;-74
2023/04/28 08:49:17;;;;;;;;;;;18.70;99.90;;;;;;5074151;28;19931;-73
2023/04/28 08:51:46;;;;;;;;;;;18.60;99.90;;;;;;5073786;28;19966;-74
2023/04/28 08:54:13;;;;;;;;;;;18.60;99.90;;;;;;5073828;28;19916;-73
2023/04/28 08:56:39;;;;;;;;;;;18.60;99.90;;;;;;5055826;28;19909;-73
2023/04/28 08:59:05;;;;;;;;;;;18.50;99.90;;;;;;5055707;28;20356;-73
2023/04/28 09:01:31;;;;;;;;;;;18.30;99.90;;;;;;5073751;28;19908;-73
2023/04/28 09:03:59;;;;;;;;;;;18.30;99.90;;;;;;5055622;28;20406;-74
2023/04/28 09:06:25;;;;;;;;;;;18.30;99.90;;;;;;5073636;28;19909;-73
2023/04/28 09:08:50;;;;;;;;;;;18.30;99.90;;;;;;5073664;28;19915;-73
2023/04/28 09:11:16;;;;;;;;;;;;;;;;;;5073648;28;20289;-70
2023/04/28 09:13:42;;;;;;;;;;;18.30;99.90;;;;;;5073792;28;19908;-74
2023/04/28 09:16:08;;;;;;;;;;;18.40;99.90;;;;;;5073916;28;20270;-75
2023/04/28 09:18:33;;;;;;;;;;;18.50;99.90;;;;;;5073518;28;19909;-73
2023/04/28 09:21:03;;;;;;;;;;;18.40;99.90;;;;;;5073561;28;19913;-75
2023/04/28 09:23:29;;;;;;;;;;;18.50;99.90;;;;;;5073583;28;19912;-74
2023/04/28 09:25:58;;;;;;;;;;;18.80;99.90;;;;;;5073915;28;19915;-73
2023/04/28 09:28:23;;;;;;;;;;;18.80;99.90;;;;;;5074152;28;20003;-74
2023/04/28 09:30:49;;;;;;;;;;;19.10;99.90;;;;;;5078059;28;19955;-74
2023/04/28 09:33:15;;;;;;;;;;;19.40;99.90;;;;;;5078108;28;19908;-74
2023/04/28 09:35:41;;;;;;;;;;;19.30;99.90;;;;;;5077482;28;19943;-74
2023/04/28 09:38:07;;;;;;;;;;;19.10;99.90;;;;;;5077471;28;20284;-73
2023/04/28 09:40:33;;;;;;;;;;;19.40;99.90;;;;;;5077934;28;19912;-72
2023/04/28 09:42:58;;;;;;;;;;;19.60;99.90;;;;;;5076898;28;19925;-74
2023/04/28 09:45:25;;;;;;;;;;;19.70;99.90;;;;;;5077204;28;20376;-76
2023/04/28 09:47:51;;;;;;;;;;;19.60;99.90;;;;;;5077219;28;20384;-74
2023/04/28 09:50:17;;;;;;;;;;;19.90;99.90;;;;;;5077334;28;19915;-76
2023/04/28 09:52:44;;;;;;;;;;;20.10;99.90;;;;;;5077237;28;20499;-73
2023/04/28 09:55:11;;;;;;;;;;;20.40;99.90;;;;;;5077168;28;19915;-74
2023/04/28 09:57:36;;;;;;;;;;;20.50;99.90;;;;;;5077405;28;20323;-75
2023/04/28 10:00:05;;;;;;;;;;;20.70;99.90;;;;;;5077080;28;19909;-75
2023/04/28 10:02:31;;;;;;;;;;;20.80;99.90;;;;;;5077002;28;19913;-75
2023/04/28 10:04:57;;;;;;;;;;;20.60;99.90;;;;;;5077172;28;20368;-75
2023/04/28 10:07:23;;;;;;;;;;;20.50;99.90;;;;;;5077199;28;19930;-76
2023/04/28 10:09:52;;;;;;;;;;;20.40;99.90;;;;;;5076813;28;19916;-73
2023/04/28 10:12:18;;;;;;;;;;;20.60;99.90;;;;;;5076848;28;19953;-73
2023/04/28 10:14:44;;;;;;;;;;;21.20;99.90;;;;;;5076761;28;19915;-74
2023/04/28 10:17:12;;;;;;;;;;;21.60;99.90;;;;;;5076689;28;19974;-74
2023/04/28 10:19:39;;;;;;;;;;;22.10;99.90;;;;;;5076891;28;19909;-75
2023/04/28 10:22:21;;;;;;;;;;;23.20;99.90;;;;;;5058710;28;19916;-75
2023/04/28 10:24:57;;;;;;;;;;;24.30;99.90;;;;;;5058514;28;19913;-74
2023/04/28 10:27:28;;;;;;;;;;;24.70;99.90;;;;;;5076574;28;19913;-74
2023/04/28 10:29:54;;;;;;;;;;;23.90;99.90;;;;;;5077040;28;19955;-75
2023/04/28 10:32:21;;;;;;;;;;;23.60;99.90;;;;;;5076410;28;19944;-76
2023/04/28 10:34:47;;;;;;;;;;;24.10;99.90;;;;;;5058408;28;19909;-74
2023/04/28 10:37:17;;;;;;;;;;;24.70;99.90;;;;;;5076336;28;19914;-76
2023/04/28 10:40:01;;;;;;;;;;;26.20;99.90;;;;;;5074553;28;19999;-74
2023/04/28 10:42:45;;;;;;;;;;;26.20;99.90;;;;;;5074745;28;19967;-74
2023/04/28 10:45:11;;;;;;;;;;;24.90;99.90;;;;;;5075734;28;19912;-74
2023/04/28 10:47:57;;;;;;;;;;;23.80;99.90;;;;;;5074938;28;19916;-73
2023/04/28 10:50:23;;;;;;;;;;;23.20;99.90;;;;;;5075301;28;20329;-74
2023/04/28 10:52:48;;;;;;;;;;;23.00;99.90;;;;;;5075798;28;19956;-73
2023/04/28 10:55:27;;;;;;;;;;;23.40;99.90;;;;;;5076007;28;20364;-75
2023/04/28 10:58:25;;;;;;;;;;;24.00;99.90;;;;;;5056278;28;19909;-74
2023/04/28 11:00:51;;;;;;;;;;;23.40;99.90;;;;;;5051161;28;19915;-75
2023/04/28 11:03:35;;;;;;;;;;;23.10;99.90;;;;;;5074079;28;20285;-73
2023/04/28 11:06:25;;;;;;;;;;;23.60;99.90;;;;;;5075197;28;19912;-74
2023/04/28 11:08:59;;;;;;;;;;;24.20;99.90;;;;;;5075352;28;20388;-74
2023/04/28 11:11:28;;;;;;;;;;;24.00;99.90;;;;;;5075518;28;20296;-75
2023/04/28 11:13:54;;;;;;;;;;;24.00;99.90;;;;;;5076101;28;19919;-75
2023/04/28 11:16:21;;;;;;;;;;;23.40;99.90;;;;;;5075644;28;19916;-75
2023/04/28 11:18:52;;;;;;;;;;;23.30;99.90;;;;;;5075603;28;19916;-74
2023/04/28 11:21:20;;;;;;;;;;;22.90;99.90;;;;;;5075518;28;20380;-75
2023/04/28 11:23:46;;;;;;;;;;;22.50;99.90;;;;;;5075396;28;19919;-76
2023/04/28 11:26:13;;;;;;;;;;;22.20;99.90;;;;;;5075536;28;20307;-74
2023/04/28 11:28:48;;;;;;;;;;;22.30;99.90;;;;;;5075341;28;20373;-75
2023/04/28 11:31:22;;;;;;;;;;;22.50;99.90;;;;;;5075773;28;20373;-74
2023/04/28 11:33:50;;;;;;;;;;;22.50;99.90;;;;;;5075480;28;20015;-74
2023/04/28 11:36:26;;;;;;;;;;;23.30;99.90;;;;;;5075386;28;20372;-75
2023/04/28 11:38:52;;;;;;;;;;;23.50;99.90;;;;;;5075219;28;19908;-73
2023/04/28 11:41:18;;;;;;;;;;;22.80;99.90;;;;;;5056923;28;19916;-73
2023/04/28 11:43:44;;;;;;;;;;;22.50;99.90;;;;;;5075241;28;19913;-76
2023/04/28 11:46:10;;;;;;;;;;;22.60;99.90;;;;;;5075209;28;19915;-74
2023/04/28 11:48:36;;;;;;;;;;;22.80;99.90;;;;;;5075031;28;19916;-75
2023/04/28 11:51:01;;;;;;;;;;;23.30;99.90;;;;;;5074533;28;20007;-75
2023/04/28 11:53:40;;;;;;;;;;;23.50;99.90;;;;;;5074730;28;19962;-73
2023/04/28 11:56:09;;;;;;;;;;;23.70;99.90;;;;;;5074814;28;19909;-74
2023/04/28 11:58:34;;;;;;;;;;;24.20;99.90;;;;;;5074666;28;20003;-75
2023/04/28 12:01:09;;;;;;;;;;;24.60;99.90;;;;;;5074837;28;19978;-75
2023/04/28 12:03:44;;;;;;;;;;;25.50;99.90;;;;;;5074633;28;20400;-75
2023/04/28 12:06:10;;;;;;;;;;;25.60;99.90;;;;;;5074811;28;20075;-74
2023/04/28 12:08:36;;;;;;;;;;;25.60;99.90;;;;;;5074545;28;19963;-75
2023/04/28 12:11:16;;;;;;;;;;;25.30;99.90;;;;;;5056656;28;19943;-75
2023/04/28 12:13:42;;;;;;;;;;;25.20;99.90;;;;;;5056294;28;19943;-75
2023/04/28 12:16:08;;;;;;;;;;;25.50;99.90;;;;;;5074544;28;19957;-77
2023/04/28 12:18:35;;;;;;;;;;;25.50;99.90;;;;;;5074475;28;19927;-75
2023/04/28 12:21:01;;;;;;;;;;;25.50;99.90;;;;;;5074371;28;20451;-76
2023/04/28 12:23:33;;;;;;;;;;;25.90;99.90;;;;;;5074409;28;19908;-76
2023/04/28 12:26:00;;;;;;;;;;;25.60;99.90;;;;;;5074313;28;19916;-73
2023/04/28 12:28:36;;;;;;;;;;;24.60;99.90;;;;;;5074241;28;19908;-75
2023/04/28 12:31:03;;;;;;;;;;;24.70;99.90;;;;;;5074397;28;20296;-75
2023/04/28 12:33:29;;;;;;;;;;;25.10;99.90;;;;;;5074248;28;19908;-75
2023/04/28 12:35:55;;;;;;;;;;;25.90;99.90;;;;;;5074210;28;19909;-74
2023/04/28 12:38:21;;;;;;;;;;;25.60;99.90;;;;;;5074019;28;20007;-75
2023/04/28 12:40:47;;;;;;;;;;;25.20;99.90;;;;;;5055983;28;19909;-75
2023/04/28 12:43:12;;;;;;;;;;;25.30;99.90;;;;;;5073977;28;19916;-75
2023/04/28 12:45:40;;;;;;;;;;;25.40;99.90;;;;;;5073952;28;20440;-75
2023/04/28 12:48:06;;;;;;;;;;;25.50;99.90;;;;;;5073886;28;19909;-74
2023/04/28 12:50:32;;;;;;;;;;;25.60;99.90;;;;;;5074182;28;19915;-74
2023/04/28 12:52:58;;;;;;;;;;;25.50;99.90;;;;;;5073850;28;19909;-76
2023/04/28 12:55:24;;;;;;;;;;;24.80;99.90;;;;;;5073838;28;19919;-75
2023/04/28 12:57:50;;;;;;;;;;;25.00;99.90;;;;;;5073762;28;19909;-75
2023/04/28 13:00:16;;;;;;;;;;;25.40;99.90;;;;;;5073793;28;19908;-76
2023/04/28 13:02:44;;;;;;;;;;;25.60;99.90;;;;;;5055253;28;19909;-75
2023/04/28 13:05:09;;;;;;;;;;;25.50;99.90;;;;;;5073194;28;19913;-74
2023/04/28 13:07:35;;;;;;;;;;;26.00;99.90;;;;;;5055759;28;19961;-75
2023/04/28 13:10:00;;;;;;;;;;;27.10;99.90;;;;;;5073659;28;20285;-74
2023/04/28 13:12:26;;;;;;;;;;;29.40;99.90;;;;;;5073651;28;20380;-75
2023/04/28 13:14:52;;;;;;;;;;;30.50;99.90;;;;;;5073622;28;19909;-78
2023/04/28 13:17:17;;;;;;;;;;;34.50;99.90;;;;;;5073684;28;19974;-76
2023/04/28 13:19:43;;;;;;;;;;;33.50;99.90;;;;;;5073575;28;19913;-75
2023/04/28 13:22:09;;;;;;;;;;;32.80;99.90;;;;;;5073519;28;20319;-76
2023/04/28 13:24:34;;;;;;;;;;;31.80;99.90;;;;;;5073461;28;19938;-75
2023/04/28 13:27:01;;;;;;;;;;;31.50;99.90;;;;;;5073588;28;20381;-74
2023/04/28 13:29:27;;;;;;;;;;;31.30;99.90;;;;;;5073443;28;19915;-76
2023/04/28 13:31:53;;;;;;;;;;;30.70;99.90;;;;;;5055484;28;19908;-76
2023/04/28 13:34:18;;;;;;;;;;;29.90;99.90;;;;;;5073724;28;19908;-76
2023/04/28 13:36:44;;;;;;;;;;;28.30;99.90;;;;;;5055479;28;20308;-75
2023/04/28 13:39:10;;;;;;;;;;;27.20;99.90;;;;;;5073388;28;19947;-75
2023/04/28 13:41:36;;;;;;;;;;;26.40;99.90;;;;;;5055266;28;19928;-75
2023/04/28 13:44:02;;;;;;;;;;;25.50;99.90;;;;;;5073185;28;19913;-74
2023/04/28 13:46:28;;;;;;;;;;;25.20;99.90;;;;;;5073384;28;20368;-74
2023/04/28 13:48:53;;;;;;;;;;;25.50;99.90;;;;;;5073562;28;19919;-73
2023/04/28 13:51:19;;;;;;;;;;;25.90;99.90;;;;;;5073257;28;19908;-74
2023/04/28 13:53:45;;;;;;;;;;;26.10;99.90;;;;;;5073253;28;19912;-75
2023/04/28 13:56:11;;;;;;;;;;;26.00;99.90;;;;;;5073253;28;19909;-76
2023/04/28 13:58:36;;;;;;;;;;;26.20;99.90;;;;;;5073192;28;19908;-74
2023/04/28 14:01:03;;;;;;;;;;;26.60;99.90;;;;;;5073275;28;19909;-76
2023/04/28 14:03:29;;;;;;;;;;;27.10;99.90;;;;;;5055106;28;19913;-75
2023/04/28 14:05:55;;;;;;;;;;;27.40;99.90;;;;;;5054911;28;19931;-75
2023/04/28 14:08:21;;;;;;;;;;;27.50;99.90;;;;;;5055148;28;19908;-75
2023/04/28 14:10:48;;;;;;;;;;;28.40;99.90;;;;;;5073213;28;19909;-75
2023/04/28 14:13:14;;;;;;;;;;;31.30;99.90;;;;;;5073182;28;20400;-76
2023/04/28 14:15:40;;;;;;;;;;;32.20;99.90;;;;;;5075291;28;19908;-76
2023/04/28 14:18:06;;;;;;;;;;;34.10;99.90;;;;;;5058905;28;20342;-75
2023/04/28 14:20:32;;;;;;;;;;;34.90;99.90;;;;;;5076721;28;19908;-76